Time;durP1;ratioP1;P1;durP2;ratioP2;P2;SDS_P1;SDS_P2;PMS_P1;PMS_P2;Temp;Humidity;BMP_temperature;BMP_pressure;BME280_temperature;BME280_humidity;BME280_pressure;Samples;Min_cycle;Max_cycle;Signal;HPM_P1;HPM_P2
2022/09/24 00:00:56;;;;;;;50.50;37.22;;;14.20;99.90;;;;;;5055406;28;20041;-72
2022/09/24 00:03:24;;;;;;;56.65;40.75;;;13.80;99.90;;;;;;5073805;28;20040;-72
2022/09/24 00:05:51;;;;;;;54.30;40.13;;;14.60;99.90;;;;;;5073370;28;20448;-72
2022/09/24 00:08:18;;;;;;;51.35;38.92;;;14.70;99.90;;;;;;5073550;28;20502;-72
2022/09/24 00:10:46;;;;;;;55.92;39.22;;;14.10;99.90;;;;;;5072303;28;20406;-72
2022/09/24 00:13:15;;;;;;;51.67;38.22;;;15.00;99.90;;;;;;5072042;28;20086;-72
2022/09/24 00:15:47;;;;;;;51.58;38.80;;;13.90;99.90;;;;;;5072037;28;20494;-72
2022/09/24 00:18:14;;;;;;;56.35;40.70;;;14.10;99.90;;;;;;5073419;28;20042;-71
2022/09/24 00:20:41;;;;;;;54.40;40.70;;;13.90;99.90;;;;;;5072099;28;20039;-72
2022/09/24 00:23:08;;;;;;;54.38;40.30;;;13.90;99.90;;;;;;5073165;28;20525;-72
2022/09/24 00:28:25;;;;;;;55.30;42.33;;;13.70;99.90;;;;;;5071804;28;20462;-72
2022/09/24 00:30:51;;;;;;;62.15;40.78;;;14.00;99.90;;;;;;5054177;28;20391;-72
2022/09/24 00:33:17;;;;;;;65.80;46.55;;;14.30;99.90;;;;;;5071837;28;20058;-72
2022/09/24 00:35:42;;;;;;;59.10;42.20;;;14.20;99.90;;;;;;5071410;28;20052;-72
2022/09/24 00:38:08;;;;;;;57.00;43.20;;;14.60;99.90;;;;;;5071552;28;20123;-71
2022/09/24 00:40:36;;;;;;;58.55;45.33;;;14.10;99.90;;;;;;5071565;28;20107;-72
2022/09/24 00:43:24;;;;;;;67.68;46.60;;;13.90;99.90;;;;;;5071442;28;20544;-72
2022/09/24 00:45:53;;;;;;;52.60;39.10;;;14.00;99.90;;;;;;5054836;28;20127;-72
2022/09/24 00:48:18;;;;;;;67.40;47.08;;;13.90;99.90;;;;;;5071497;28;20097;-72
2022/09/24 00:50:45;;;;;;;59.90;42.53;;;;;;;;;;5072511;28;20493;-72
2022/09/24 00:53:15;;;;;;;66.50;46.25;;;13.60;99.90;;;;;;5054594;28;20036;-71
2022/09/24 00:55:43;;;;;;;61.53;44.17;;;14.50;99.90;;;;;;5054680;28;20494;-72
2022/09/24 00:58:09;;;;;;;64.45;45.03;;;14.10;99.90;;;;;;5054562;28;20616;-72
2022/09/24 01:00:43;;;;;;;55.60;42.63;;;14.90;99.90;;;;;;5070868;28;20078;-72
2022/09/24 01:03:16;;;;;;;66.25;48.20;;;13.70;99.90;;;;;;5072786;28;20321;-72
2022/09/24 01:05:42;;;;;;;73.50;51.13;;;14.70;99.90;;;;;;5070856;28;20044;-72
2022/09/24 01:08:12;;;;;;;70.68;49.45;;;13.80;99.90;;;;;;5071032;28;20498;-72
2022/09/24 01:11:04;;;;;;;82.28;55.78;;;15.20;99.90;;;;;;5072158;28;20093;-72
2022/09/24 01:13:42;;;;;;;82.22;56.13;;;13.80;99.90;;;;;;5070960;28;20041;-72
2022/09/24 01:16:08;;;;;;;73.05;48.97;;;;;;;;;;5072326;28;20041;-71
2022/09/24 01:18:43;;;;;;;90.43;60.40;;;13.80;99.90;;;;;;5072221;28;20068;-72
2022/09/24 01:21:20;;;;;;;65.07;48.17;;;13.90;99.90;;;;;;5072060;28;20040;-72
2022/09/24 01:24:18;;;;;;;73.85;51.47;;;14.10;99.90;;;;;;5071879;28;20138;-71
2022/09/24 01:26:46;;;;;;;76.07;53.45;;;14.00;99.90;;;;;;5070791;28;20075;-72
2022/09/24 01:29:30;;;;;;;72.22;50.47;;;13.90;99.90;;;;;;5070780;28;20532;-71
2022/09/24 01:32:30;;;;;;;74.30;52.42;;;13.80;99.90;;;;;;5053754;28;20085;-70
2022/09/24 01:35:17;;;;;;;67.03;47.50;;;13.90;99.90;;;;;;5070710;28;20117;-70
2022/09/24 01:37:47;;;;;;;64.97;47.97;;;14.00;99.90;;;;;;5071048;28;20293;-71
2022/09/24 01:40:13;;;;;;;73.07;50.40;;;14.10;99.90;;;;;;5072268;28;20040;-71
2022/09/24 01:42:42;;;;;;;74.97;50.10;;;14.00;99.90;;;;;;5070576;28;20037;-70
2022/09/24 01:45:09;;;;;;;77.72;52.83;;;14.00;99.90;;;;;;5070722;28;20075;-71
2022/09/24 01:47:38;;;;;;;87.55;57.40;;;13.90;99.90;;;;;;5072013;28;20040;-71
2022/09/24 01:50:05;;;;;;;73.78;51.53;;;13.80;99.90;;;;;;5071579;28;20090;-71
2022/09/24 01:52:39;;;;;;;61.92;44.67;;;14.00;99.90;;;;;;5073217;28;20123;-71
2022/09/24 01:55:09;;;;;;;75.82;49.40;;;14.00;99.90;;;;;;5072593;28;20549;-71
2022/09/24 01:58:00;;;;;;;68.32;48.35;;;14.10;99.90;;;;;;5073516;28;20062;-71
2022/09/24 02:00:26;;;;;;;68.18;47.90;;;14.10;99.90;;;;;;5053234;28;20124;-71
2022/09/24 02:03:16;;;;;;;74.68;52.55;;;14.70;99.90;;;;;;5070855;28;20044;-71
2022/09/24 02:05:49;;;;;;;71.05;48.42;;;13.70;99.90;;;;;;5074171;28;20058;-71
2022/09/24 02:08:15;;;;;;;62.15;43.17;;;14.00;99.90;;;;;;5073781;28;20402;-71
2022/09/24 02:11:13;;;;;;;65.95;45.80;;;14.10;99.90;;;;;;5073443;28;20048;-71
2022/09/24 02:14:05;;;;;;;73.70;50.65;;;14.00;99.90;;;;;;5053468;28;20043;-72
2022/09/24 02:16:44;;;;;;;63.60;43.83;;;14.10;99.90;;;;;;5070299;28;20059;-71
2022/09/24 02:19:13;;;;;;;69.88;48.28;;;14.60;99.90;;;;;;5070210;28;20045;-71
2022/09/24 02:21:41;;;;;;;70.65;47.75;;;14.10;99.90;;;;;;5071280;28;20116;-71
2022/09/24 02:24:33;;;;;;;69.90;46.22;;;14.10;99.90;;;;;;5069888;28;20047;-70
2022/09/24 02:26:58;;;;;;;63.92;44.42;;;14.20;99.90;;;;;;5068180;28;20055;-70
2022/09/24 02:29:24;;;;;;;64.75;44.88;;;15.10;99.90;;;;;;5070206;28;20115;-71
2022/09/24 02:31:53;;;;;;;68.53;48.40;;;14.10;99.90;;;;;;5071156;28;20041;-71
2022/09/24 02:34:32;;;;;;;67.85;46.17;;;14.00;99.90;;;;;;5053348;28;20052;-71
2022/09/24 02:37:04;;;;;;;68.90;46.05;;;13.90;99.90;;;;;;5070339;28;20083;-71
2022/09/24 02:39:29;;;;;;;67.03;45.60;;;13.90;99.90;;;;;;5071416;28;20061;-72
2022/09/24 02:41:57;;;;;;;68.30;45.40;;;14.20;99.90;;;;;;5053230;28;20528;-72
2022/09/24 02:44:23;;;;;;;64.70;43.30;;;14.10;99.90;;;;;;5069615;28;20044;-71
2022/09/24 02:46:49;;;;;;;54.13;37.78;;;13.80;99.90;;;;;;5071435;28;20516;-71
2022/09/24 02:49:15;;;;;;;45.85;33.75;;;13.70;99.90;;;;;;5069861;28;20087;-71
2022/09/24 02:51:41;;;;;;;52.38;32.92;;;14.20;99.90;;;;;;5069669;28;20044;-71
2022/09/24 02:54:08;;;;;;;61.15;40.58;;;14.90;99.90;;;;;;5071610;28;20080;-71
2022/09/24 02:56:34;;;;;;;60.50;40.38;;;13.70;99.90;;;;;;5074892;28;20040;-72
2022/09/24 02:59:01;;;;;;;54.53;39.10;;;14.40;99.90;;;;;;5074234;28;20032;-70
2022/09/24 03:01:28;;;;;;;49.53;34.67;;;13.70;99.90;;;;;;5073451;28;20062;-71
2022/09/24 03:03:53;;;;;;;44.80;30.80;;;14.00;99.90;;;;;;5073402;28;20036;-70
2022/09/24 03:06:19;;;;;;;44.67;28.77;;;14.10;99.90;;;;;;5073533;28;20039;-72
2022/09/24 03:08:45;;;;;;;43.40;29.85;;;14.00;99.90;;;;;;5074573;28;20433;-72
2022/09/24 03:11:12;;;;;;;29.33;18.55;;;13.90;99.90;;;;;;5074313;28;20119;-72
2022/09/24 03:13:38;;;;;;;11.52;8.82;;;14.20;99.90;;;;;;5056549;28;20036;-71
2022/09/24 03:16:04;;;;;;;10.23;7.45;;;15.00;99.90;;;;;;5056260;28;20036;-71
2022/09/24 03:18:30;;;;;;;11.68;7.47;;;13.90;99.90;;;;;;5073443;28;20033;-71
2022/09/24 03:21:03;;;;;;;21.25;15.52;;;13.90;99.90;;;;;;5073385;28;20506;-71
2022/09/24 03:23:29;;;;;;;19.42;12.77;;;;;;;;;;5074288;28;20051;-72
2022/09/24 03:25:55;;;;;;;22.55;14.25;;;14.10;99.90;;;;;;5074022;28;20044;-71
2022/09/24 03:28:21;;;;;;;19.92;14.02;;;13.90;99.90;;;;;;5073332;28;20093;-71
2022/09/24 03:30:59;;;;;;;23.00;14.90;;;13.90;99.90;;;;;;5074351;28;20045;-70
2022/09/24 03:33:36;;;;;;;23.70;14.98;;;13.80;99.90;;;;;;5056287;28;20441;-70
2022/09/24 03:36:05;;;;;;;19.08;14.18;;;14.50;99.90;;;;;;5073861;28;20079;-70
2022/09/24 03:38:31;;;;;;;23.30;15.13;;;;;;;;;;5073198;28;20093;-70
2022/09/24 03:40:57;;;;;;;19.35;14.02;;;13.90;99.90;;;;;;5072808;28;20039;-70
2022/09/24 03:43:23;;;;;;;22.75;15.38;;;14.20;99.90;;;;;;5074173;28;20565;-70
2022/09/24 03:45:49;;;;;;;20.13;14.27;;;13.70;99.90;;;;;;5073913;28;20040;-70
2022/09/24 03:48:19;;;;;;;25.27;16.30;;;14.00;99.90;;;;;;5072686;28;20123;-70
2022/09/24 03:50:45;;;;;;;23.50;15.23;;;14.20;99.90;;;;;;5072479;28;20505;-70
2022/09/24 03:53:11;;;;;;;21.98;15.05;;;14.30;99.90;;;;;;5073950;28;20036;-70
2022/09/24 03:55:45;;;;;;;23.27;15.95;;;14.10;99.90;;;;;;5072303;28;20068;-70
2022/09/24 03:58:12;;;;;;;23.55;15.35;;;14.90;99.90;;;;;;5072767;28;20037;-70
2022/09/24 04:00:38;;;;;;;25.27;16.40;;;14.60;99.90;;;;;;5071759;28;20040;-70
2022/09/24 04:03:04;;;;;;;26.63;16.17;;;13.90;99.90;;;;;;5056012;28;20068;-70
2022/09/24 04:05:30;;;;;;;28.75;16.10;;;14.00;99.90;;;;;;5072065;28;20040;-70
2022/09/24 04:07:57;;;;;;;29.27;17.30;;;14.20;99.90;;;;;;5073653;28;20040;-71
2022/09/24 04:10:23;;;;;;;28.60;17.83;;;14.20;99.90;;;;;;5072050;28;20101;-70
2022/09/24 04:12:50;;;;;;;27.33;17.02;;;14.20;99.90;;;;;;5073459;28;20036;-70
2022/09/24 04:15:16;;;;;;;30.80;19.23;;;14.80;99.90;;;;;;5071777;28;20045;-70
2022/09/24 04:17:48;;;;;;;24.85;16.42;;;14.10;99.90;;;;;;5072432;28;20033;-70
2022/09/24 04:20:14;;;;;;;26.13;14.73;;;13.90;99.90;;;;;;5072107;28;20036;-70
2022/09/24 04:22:39;;;;;;;26.38;13.77;;;14.00;99.90;;;;;;5073382;28;20046;-70
2022/09/24 04:25:06;;;;;;;25.60;12.68;;;14.00;99.90;;;;;;5071921;28;20040;-71
2022/09/24 04:27:31;;;;;;;24.38;10.73;;;14.10;99.90;;;;;;5073130;28;20037;-70
2022/09/24 04:29:57;;;;;;;19.52;10.23;;;14.10;99.90;;;;;;5073130;28;20071;-70
2022/09/24 04:32:22;;;;;;;17.63;8.82;;;14.00;99.90;;;;;;5072011;28;20173;-70
2022/09/24 04:34:48;;;;;;;18.95;8.10;;;13.90;99.90;;;;;;5071478;28;20036;-70
2022/09/24 04:37:13;;;;;;;17.48;8.32;;;13.90;99.90;;;;;;5071928;28;20115;-71
2022/09/24 04:39:39;;;;;;;19.67;8.57;;;14.30;99.90;;;;;;5071753;28;20040;-71
2022/09/24 04:42:05;;;;;;;21.73;7.22;;;14.00;99.90;;;;;;5071637;28;20112;-71
2022/09/24 04:44:30;;;;;;;18.70;7.13;;;13.90;99.90;;;;;;5072529;28;20036;-71
2022/09/24 04:47:01;;;;;;;16.10;5.45;;;14.60;99.90;;;;;;5072998;28;20044;-71
2022/09/24 04:49:26;;;;;;;10.93;5.60;;;13.70;99.90;;;;;;5054930;28;20063;-71
2022/09/24 04:51:52;;;;;;;16.67;4.75;;;14.80;99.90;;;;;;5072450;28;20044;-71
2022/09/24 04:54:17;;;;;;;14.43;3.83;;;14.20;99.90;;;;;;5072371;28;20084;-71
2022/09/24 04:56:43;;;;;;;14.73;3.13;;;13.90;99.90;;;;;;5071405;28;20034;-71
2022/09/24 04:59:08;;;;;;;14.50;3.13;;;13.90;99.90;;;;;;5070764;28;20090;-71
2022/09/24 05:01:34;;;;;;;18.95;3.25;;;14.80;99.90;;;;;;5072632;28;20036;-71
2022/09/24 05:04:00;;;;;;;19.92;3.45;;;14.10;99.90;;;;;;5054451;28;20040;-71
2022/09/24 05:06:26;;;;;;;18.63;3.53;;;14.00;99.90;;;;;;5072473;28;20029;-71
2022/09/24 05:08:52;;;;;;;18.20;2.58;;;14.10;99.90;;;;;;5072362;28;20427;-71
2022/09/24 05:11:18;;;;;;;12.38;2.85;;;13.60;99.90;;;;;;5094506;22;20043;-70
2022/09/24 05:13:44;;;;;;;12.02;2.92;;;13.70;99.90;;;;;;5070278;28;20458;-69
2022/09/24 05:16:09;;;;;;;9.57;2.05;;;13.80;99.90;;;;;;5071345;28;20153;-70
2022/09/24 05:18:35;;;;;;;10.65;2.50;;;14.10;99.90;;;;;;5071729;28;20079;-70
2022/09/24 05:21:01;;;;;;;17.05;2.40;;;14.40;99.90;;;;;;5070473;28;20037;-70
2022/09/24 05:23:27;;;;;;;12.57;2.30;;;13.80;99.90;;;;;;5070465;28;20043;-70
2022/09/24 05:28:39;;;;;;;9.85;2.40;;;13.70;99.90;;;;;;5072205;28;20482;-70
2022/09/24 05:31:05;;;;;;;10.40;2.10;;;13.70;99.90;;;;;;5070318;28;20090;-70
2022/09/24 05:33:30;;;;;;;9.63;2.42;;;13.60;99.90;;;;;;5070276;28;20127;-70
2022/09/24 05:35:59;;;;;;;10.60;2.13;;;13.60;99.90;;;;;;5071566;28;20024;-70
2022/09/24 05:38:25;;;;;;;8.35;1.95;;;13.90;99.90;;;;;;5071734;28;20036;-70
2022/09/24 05:40:51;;;;;;;12.20;1.98;;;13.60;99.90;;;;;;5070440;28;20390;-70
2022/09/24 05:43:20;;;;;;;4.90;2.10;;;13.40;99.90;;;;;;5071665;28;20043;-70
2022/09/24 05:45:49;;;;;;;12.30;2.60;;;13.60;99.90;;;;;;5070146;28;20060;-70
2022/09/24 05:48:15;;;;;;;12.52;2.40;;;14.50;99.90;;;;;;5071736;28;20051;-70
2022/09/24 05:50:41;;;;;;;10.32;2.13;;;13.70;99.90;;;;;;5070329;28;20115;-70
2022/09/24 05:53:08;;;;;;;6.68;1.83;;;13.40;99.90;;;;;;5070244;28;20486;-70
2022/09/24 05:55:33;;;;;;;8.15;1.70;;;13.60;99.90;;;;;;5053127;28;20486;-70
2022/09/24 05:58:05;;;;;;;8.02;2.35;;;13.90;99.90;;;;;;5070318;28;20032;-70
2022/09/24 06:00:30;;;;;;;10.00;2.40;;;13.90;99.90;;;;;;5070802;28;20131;-70
2022/09/24 06:03:09;;;;;;;9.68;2.00;;;13.90;99.90;;;;;;5070110;28;20047;-70
2022/09/24 06:05:35;;;;;;;10.75;3.05;;;13.60;99.90;;;;;;5071423;28;20401;-70
2022/09/24 06:08:05;;;;;;;10.63;2.00;;;13.70;99.90;;;;;;5070198;28;20036;-70
2022/09/24 06:10:31;;;;;;;7.47;1.80;;;;;;;;;;5069860;28;20041;-70
2022/09/24 06:12:57;;;;;;;6.38;1.60;;;13.50;99.90;;;;;;5071185;28;20040;-70
2022/09/24 06:15:25;;;;;;;10.90;3.13;;;13.80;99.90;;;;;;5069500;28;20037;-70
2022/09/24 06:17:53;;;;;;;10.52;2.33;;;13.80;99.90;;;;;;5071377;28;20047;-70
2022/09/24 06:20:19;;;;;;;5.38;1.70;;;13.60;99.90;;;;;;5070301;28;20047;-70
2022/09/24 06:22:45;;;;;;;11.70;2.08;;;13.70;99.90;;;;;;5070034;28;20414;-70
2022/09/24 06:25:11;;;;;;;9.18;1.73;;;14.10;99.90;;;;;;5071040;28;20141;-70
2022/09/24 06:27:36;;;;;;;9.35;1.52;;;13.80;99.90;;;;;;5069857;28;20040;-70
2022/09/24 06:30:03;;;;;;;10.07;1.98;;;13.70;99.90;;;;;;5074532;28;20040;-70
2022/09/24 06:32:29;;;;;;;9.38;2.00;;;13.80;99.90;;;;;;5075265;28;20067;-70
2022/09/24 06:34:54;;;;;;;8.75;2.03;;;14.00;99.90;;;;;;5075062;28;20558;-70
2022/09/24 06:37:21;;;;;;;10.30;2.13;;;13.80;99.90;;;;;;5073782;28;20044;-70
2022/09/24 06:39:47;;;;;;;9.15;2.53;;;13.60;99.90;;;;;;5073638;28;20115;-70
2022/09/24 06:42:12;;;;;;;8.57;2.22;;;13.80;99.90;;;;;;5073511;28;20127;-70
2022/09/24 06:44:38;;;;;;;8.70;1.70;;;;;;;;;;5073497;28;20052;-70
2022/09/24 06:47:04;;;;;;;12.30;2.13;;;13.70;99.90;;;;;;5073782;28;20502;-70
2022/09/24 06:49:30;;;;;;;7.85;2.00;;;13.80;99.90;;;;;;5074847;28;20048;-70
2022/09/24 06:51:57;;;;;;;10.60;2.17;;;13.80;99.90;;;;;;5074698;28;20041;-70
2022/09/24 06:54:23;;;;;;;12.27;2.50;;;;;;;;;;5056398;28;20036;-71
2022/09/24 06:56:51;;;;;;;9.10;2.00;;;14.00;99.90;;;;;;5073418;28;20055;-70
2022/09/24 06:59:17;;;;;;;12.55;2.60;;;13.70;99.90;;;;;;5072956;28;20043;-70
2022/09/24 07:01:43;;;;;;;10.90;2.15;;;14.00;99.90;;;;;;5074790;28;20115;-70
2022/09/24 07:04:09;;;;;;;8.32;1.63;;;13.70;99.90;;;;;;5074670;28;20527;-70
2022/09/24 07:09:20;;;;;;;9.25;2.58;;;14.10;99.90;;;;;;5073042;28;20067;-70
2022/09/24 07:11:46;;;;;;;10.52;1.60;;;14.10;99.90;;;;;;5074281;28;20032;-70
2022/09/24 07:14:12;;;;;;;7.65;1.77;;;14.10;99.90;;;;;;5072874;28;20119;-70
2022/09/24 07:16:38;;;;;;;16.77;2.40;;;13.90;99.90;;;;;;5073131;28;20347;-70
2022/09/24 07:19:04;;;;;;;8.45;1.70;;;14.10;99.90;;;;;;5073105;28;20439;-70
2022/09/24 07:21:30;;;;;;;13.43;1.70;;;14.20;99.90;;;;;;5074152;28;20044;-70
2022/09/24 07:23:56;;;;;;;6.05;1.40;;;14.30;99.90;;;;;;5074201;28;20411;-70
2022/09/24 07:26:21;;;;;;;9.13;1.98;;;14.40;99.90;;;;;;5072919;28;20040;-70
2022/09/24 07:28:47;;;;;;;10.60;1.70;;;14.20;99.90;;;;;;5073623;28;20044;-70
2022/09/24 07:31:13;;;;;;;6.72;1.35;;;14.30;99.90;;;;;;5072775;28;20044;-70
2022/09/24 07:33:39;;;;;;;13.02;2.00;;;14.40;99.90;;;;;;5073922;28;20041;-70
2022/09/24 07:36:08;;;;;;;9.45;1.20;;;14.10;99.90;;;;;;5073680;28;20056;-71
2022/09/24 07:38:35;;;;;;;11.80;1.85;;;14.60;99.90;;;;;;5072938;28;20033;-70
2022/09/24 07:41:04;;;;;;;7.68;1.25;;;14.40;99.90;;;;;;5072352;28;20048;-71
2022/09/24 07:43:32;;;;;;;5.55;0.98;;;14.50;99.90;;;;;;5073909;28;20048;-70
2022/09/24 07:45:57;;;;;;;5.97;1.25;;;14.50;99.90;;;;;;5072280;28;20037;-70
2022/09/24 07:48:23;;;;;;;7.32;1.40;;;13.20;99.90;;;;;;5055831;28;20043;-71
2022/09/24 07:50:50;;;;;;;9.23;1.48;;;14.60;99.90;;;;;;5073683;28;20413;-71
2022/09/24 07:53:16;;;;;;;5.85;1.25;;;14.40;99.90;;;;;;5072312;28;20087;-70
2022/09/24 07:55:42;;;;;;;8.65;2.25;;;14.60;99.90;;;;;;5073732;28;20032;-71
2022/09/24 07:58:11;;;;;;;9.07;2.00;;;14.60;99.90;;;;;;5072173;28;20037;-70
2022/09/24 08:00:36;;;;;;;7.28;1.13;;;14.70;99.90;;;;;;5054768;28;20090;-70
2022/09/24 08:03:03;;;;;;;8.88;1.80;;;14.60;99.90;;;;;;5072273;28;20044;-71
2022/09/24 08:05:31;;;;;;;6.32;1.10;;;14.90;99.90;;;;;;5072105;28;20398;-71
2022/09/24 08:07:57;;;;;;;6.55;1.35;;;15.00;99.90;;;;;;5072093;28;20044;-70
2022/09/24 08:10:25;;;;;;;6.88;1.17;;;14.80;99.90;;;;;;5073127;28;20051;-71
2022/09/24 08:12:52;;;;;;;9.68;1.15;;;14.90;99.90;;;;;;5073262;28;20119;-70
2022/09/24 08:15:18;;;;;;;4.68;1.30;;;14.80;99.90;;;;;;5071786;28;20040;-71
2022/09/24 08:17:44;;;;;;;2.80;0.95;;;14.80;99.90;;;;;;5073288;28;20041;-70
2022/09/24 08:20:11;;;;;;;4.82;1.27;;;15.10;99.90;;;;;;5071658;28;20040;-70
2022/09/24 08:22:37;;;;;;;3.20;1.13;;;;;;;;;;5073046;28;20097;-71
2022/09/24 08:25:04;;;;;;;9.52;1.98;;;15.00;99.90;;;;;;5072902;28;20040;-70
2022/09/24 08:27:31;;;;;;;11.85;2.63;;;15.20;99.90;;;;;;5072086;28;20051;-70
2022/09/24 08:29:59;;;;;;;13.45;1.75;;;15.20;99.90;;;;;;5071834;28;20414;-70
2022/09/24 08:32:25;;;;;;;3.05;0.93;;;15.30;99.90;;;;;;5054640;28;20040;-70
2022/09/24 08:34:51;;;;;;;5.43;2.50;;;15.30;99.90;;;;;;5071445;28;20525;-70
2022/09/24 08:37:17;;;;;;;6.07;1.45;;;15.40;99.90;;;;;;5072928;28;20127;-70
2022/09/24 08:39:42;;;;;;;9.73;1.40;;;15.30;99.90;;;;;;5072659;28;20112;-70
2022/09/24 08:42:24;;;;;;;10.20;1.40;;;15.50;99.90;;;;;;5072569;28;20075;-71
2022/09/24 08:47:47;;;;;;;11.70;1.95;;;15.50;99.90;;;;;;5072376;28;20518;-70
2022/09/24 08:50:19;;;;;;;15.80;2.20;;;15.30;99.90;;;;;;5072427;28;20040;-70
2022/09/24 08:53:05;;;;;;;10.63;2.22;;;15.60;99.90;;;;;;5070246;28;20543;-69
2022/09/24 08:55:46;;;;;;;15.38;2.53;;;15.30;99.90;;;;;;5070930;28;20048;-70
2022/09/24 08:58:43;;;;;;;7.88;2.03;;;15.40;99.90;;;;;;5072415;28;20126;-69
2022/09/24 09:01:16;;;;;;;13.82;2.78;;;15.20;99.90;;;;;;5071109;28;20037;-70
2022/09/24 09:03:51;;;;;;;;;;;15.30;99.90;;;;;;5071537;28;20521;-69
2022/09/24 09:06:41;;;;;;;12.35;2.28;;;14.90;99.90;;;;;;5072166;28;20004;-69
2022/09/24 09:09:21;;;;;;;13.30;1.75;;;15.00;99.90;;;;;;5072115;28;20090;-69
2022/09/24 09:11:51;;;;;;;6.32;1.25;;;15.00;99.90;;;;;;5072059;28;20090;-69
2022/09/24 09:14:36;;;;;;;9.10;2.20;;;15.00;99.90;;;;;;5071729;28;20493;-69
2022/09/24 09:17:12;;;;;;;8.18;1.30;;;14.80;99.90;;;;;;5072067;28;20133;-69
2022/09/24 09:19:39;;;;;;;10.30;1.77;;;15.10;99.90;;;;;;5071905;28;20532;-69
2022/09/24 09:22:16;;;;;;;12.98;2.40;;;15.00;99.90;;;;;;5070804;28;20119;-69
2022/09/24 09:24:50;;;;;;;6.30;1.30;;;15.10;99.90;;;;;;5071696;28;20037;-69
2022/09/24 09:27:18;;;;;;;5.00;1.67;;;15.10;99.90;;;;;;5071827;28;20554;-69
2022/09/24 09:29:49;;;;;;;11.23;1.83;;;15.00;99.90;;;;;;5071693;28;20115;-69
2022/09/24 09:32:44;;;;;;;9.68;1.58;;;15.10;99.90;;;;;;5071749;28;20048;-69
2022/09/24 09:35:27;;;;;;;6.43;1.20;;;15.10;99.90;;;;;;5033060;28;20055;-69
2022/09/24 09:38:26;;;;;;;5.93;0.95;;;14.90;99.90;;;;;;5071631;28;20119;-71
2022/09/24 09:41:02;;;;;;;9.77;1.58;;;15.10;99.90;;;;;;5071538;28;20092;-70
2022/09/24 09:43:27;;;;;;;8.63;1.73;;;15.20;99.90;;;;;;5071665;28;20071;-69
2022/09/24 09:46:22;;;;;;;9.73;1.33;;;15.20;99.90;;;;;;5071291;28;20105;-70
2022/09/24 09:48:55;;;;;;;10.48;1.38;;;15.10;99.90;;;;;;5070430;28;20524;-70
2022/09/24 09:51:24;;;;;;;6.28;1.52;;;15.10;99.90;;;;;;5071728;28;20046;-70
2022/09/24 09:53:58;;;;;;;4.60;0.93;;;15.00;99.90;;;;;;5071526;28;20051;-70
2022/09/24 09:56:28;;;;;;;13.90;3.03;;;15.20;99.90;;;;;;5071540;28;20036;-70
2022/09/24 09:59:15;;;;;;;6.15;1.15;;;15.40;99.90;;;;;;5071114;28;20044;-70
2022/09/24 10:01:44;;;;;;;6.18;1.10;;;15.40;99.90;;;;;;5070367;28;20379;-69
2022/09/24 10:04:34;;;;;;;9.48;1.50;;;15.30;99.90;;;;;;5069949;28;20036;-70
2022/09/24 10:07:05;;;;;;;7.63;1.23;;;15.20;99.90;;;;;;5053636;28;20379;-69
2022/09/24 10:09:33;;;;;;;7.57;1.40;;;15.00;99.90;;;;;;5071404;28;20044;-69
2022/09/24 10:12:13;;;;;;;7.15;1.30;;;15.30;99.90;;;;;;5069842;28;20037;-70
2022/09/24 10:14:39;;;;;;;9.52;2.13;;;15.20;99.90;;;;;;5071147;28;20044;-68
2022/09/24 10:17:05;;;;;;;8.35;1.83;;;15.20;99.90;;;;;;5070064;28;20044;-69
2022/09/24 10:19:37;;;;;;;6.72;1.38;;;15.10;99.90;;;;;;5069915;28;20044;-71
2022/09/24 10:22:13;;;;;;;9.60;1.75;;;15.10;99.90;;;;;;5071509;28;20041;-70
2022/09/24 10:24:42;;;;;;;10.10;1.63;;;15.10;99.90;;;;;;5069920;28;20041;-70
2022/09/24 10:27:26;;;;;;;6.93;1.75;;;15.20;99.90;;;;;;5071226;28;20081;-70
2022/09/24 10:32:40;;;;;;;7.20;1.30;;;15.20;99.90;;;;;;5071106;28;20075;-70
2022/09/24 10:35:20;;;;;;;10.57;1.45;;;15.10;99.90;;;;;;5069779;28;20037;-69
2022/09/24 10:37:51;;;;;;;12.10;1.45;;;15.10;99.90;;;;;;5069823;28;20127;-69
2022/09/24 10:40:22;;;;;;;5.72;1.33;;;15.10;99.90;;;;;;5069650;28;20517;-69
2022/09/24 10:43:03;;;;;;;8.63;1.25;;;15.10;99.90;;;;;;5053150;28;20037;-69
2022/09/24 10:46:09;;;;;;;6.43;1.23;;;15.30;99.90;;;;;;5069449;28;20044;-68
2022/09/24 10:48:58;;;;;;;5.70;1.10;;;15.40;99.90;;;;;;5069993;28;20040;-69
2022/09/24 10:51:52;;;;;;;9.10;1.33;;;15.50;99.90;;;;;;5071130;28;20048;-69
2022/09/24 10:54:50;;;;;;;6.78;1.48;;;15.50;99.90;;;;;;5070680;28;20522;-69
2022/09/24 10:57:19;;;;;;;5.43;1.58;;;15.50;99.90;;;;;;5071230;28;20113;-69
2022/09/24 11:00:03;;;;;;;5.07;0.90;;;15.60;99.90;;;;;;5070537;28;20502;-69
2022/09/24 11:02:58;;;;;;;10.57;1.13;;;15.50;99.90;;;;;;5069573;28;20079;-69
2022/09/24 11:05:38;;;;;;;8.57;1.80;;;15.70;99.90;;;;;;5070773;28;20037;-69
2022/09/24 11:08:25;;;;;;;5.70;1.83;;;16.10;99.90;;;;;;5070994;28;20033;-69
2022/09/24 11:11:06;;;;;;;9.68;1.55;;;15.70;99.90;;;;;;5093009;22;20117;-71
2022/09/24 11:13:55;;;;;;;7.80;1.13;;;15.90;99.90;;;;;;5069835;28;20037;-72
2022/09/24 11:16:57;;;;;;;4.78;0.90;;;16.00;99.90;;;;;;5056845;28;20107;-71
2022/09/24 11:19:56;;;;;;;12.00;1.75;;;16.00;99.90;;;;;;5074701;28;20081;-70
2022/09/24 11:22:39;;;;;;;9.57;1.92;;;16.10;99.90;;;;;;5073056;28;20050;-73
2022/09/24 11:25:23;;;;;;;14.45;1.75;;;15.80;99.90;;;;;;5056170;28;20049;-72
2022/09/24 11:28:01;;;;;;;9.52;1.88;;;15.90;99.90;;;;;;5056298;28;20097;-71
2022/09/24 11:30:50;;;;;;;9.20;2.60;;;15.90;99.90;;;;;;5073218;28;20102;-71
2022/09/24 11:33:31;;;;;;;9.68;2.00;;;15.90;99.90;;;;;;5073975;28;20036;-71
2022/09/24 11:35:56;;;;;;;6.57;1.42;;;15.90;99.90;;;;;;5072551;28;20051;-72
2022/09/24 11:38:40;;;;;;;7.65;1.60;;;16.00;99.90;;;;;;5072788;28;20040;-71
2022/09/24 11:41:20;;;;;;;9.13;1.63;;;15.80;99.90;;;;;;5074047;28;20040;-71
2022/09/24 11:44:04;;;;;;;10.70;2.17;;;15.50;99.90;;;;;;5072733;28;20091;-71
2022/09/24 11:46:43;;;;;;;9.35;1.20;;;14.90;99.90;;;;;;5072852;28;20113;-71
2022/09/24 11:49:35;;;;;;;11.30;1.98;;;15.10;99.90;;;;;;5072613;28;20052;-71
2022/09/24 11:52:20;;;;;;;4.88;1.75;;;15.00;99.90;;;;;;5073539;28;20072;-71
2022/09/24 11:55:08;;;;;;;8.30;1.20;;;15.10;99.90;;;;;;5071969;28;20043;-72
2022/09/24 11:57:40;;;;;;;6.03;1.17;;;15.20;99.90;;;;;;5073839;28;20044;-72
2022/09/24 12:00:13;;;;;;;6.97;1.50;;;15.00;99.90;;;;;;5072236;28;20041;-72
2022/09/24 12:02:50;;;;;;;10.03;1.50;;;15.20;99.90;;;;;;5055889;28;20383;-71
2022/09/24 12:05:34;;;;;;;8.85;1.20;;;15.30;99.90;;;;;;5072084;28;20275;-73
2022/09/24 12:08:19;;;;;;;8.77;1.13;;;15.10;99.90;;;;;;5073626;28;20543;-74
2022/09/24 12:10:56;;;;;;;5.60;1.30;;;15.30;99.90;;;;;;5072110;28;20040;-72
2022/09/24 12:13:37;;;;;;;4.22;0.88;;;15.20;99.90;;;;;;5072261;28;20058;-72
2022/09/24 12:16:15;;;;;;;4.20;1.58;;;15.20;99.90;;;;;;5071867;28;20041;-72
2022/09/24 12:19:11;;;;;;;5.50;1.25;;;15.30;99.90;;;;;;5072138;28;20036;-73
2022/09/24 12:21:40;;;;;;;3.83;0.88;;;15.40;99.90;;;;;;5071943;28;20041;-75
2022/09/24 12:24:19;;;;;;;9.10;1.48;;;15.30;99.90;;;;;;5073131;28;20045;-72
2022/09/24 12:26:45;;;;;;;9.50;1.77;;;15.30;99.90;;;;;;5070993;28;20047;-71
2022/09/24 12:32:55;;;;;;;5.97;1.10;;;15.40;99.90;;;;;;5073185;28;20048;-72
2022/09/24 12:35:54;;;;;;;3.83;1.25;;;15.70;99.90;;;;;;5071499;28;20044;-74
2022/09/24 12:38:41;;;;;;;7.55;1.65;;;15.60;99.90;;;;;;5066229;28;20063;-71
2022/09/24 12:41:21;;;;;;;8.57;1.85;;;15.60;99.90;;;;;;5071563;28;20048;-72
2022/09/24 12:44:04;;;;;;;9.55;2.03;;;15.60;99.90;;;;;;5071456;28;20040;-71
2022/09/24 12:46:52;;;;;;;5.78;1.00;;;15.80;99.90;;;;;;5071618;28;20094;-72
2022/09/24 12:49:24;;;;;;;6.15;1.83;;;15.70;99.90;;;;;;5071580;28;20123;-72
2022/09/24 12:52:14;;;;;;;4.18;1.20;;;16.20;99.90;;;;;;5072706;28;20047;-72
2022/09/24 12:54:41;;;;;;;10.23;1.77;;;16.10;99.90;;;;;;5072403;28;20047;-72
2022/09/24 12:57:31;;;;;;;9.90;2.05;;;16.00;99.90;;;;;;5071270;28;20490;-72
2022/09/24 13:00:38;;;;;;;9.23;1.25;;;16.00;99.90;;;;;;5071096;28;20186;-72
2022/09/24 13:03:05;;;;;;;6.28;1.25;;;16.00;99.90;;;;;;5074477;28;20040;-72
2022/09/24 13:05:47;;;;;;;7.13;1.30;;;15.90;99.90;;;;;;5072627;28;20082;-74
2022/09/24 13:08:24;;;;;;;8.13;2.15;;;16.10;99.90;;;;;;5075008;28;20041;-71
2022/09/24 13:10:55;;;;;;;13.32;3.35;;;16.10;99.90;;;;;;5074650;28;20043;-72
2022/09/24 13:13:30;;;;;;;9.05;1.92;;;16.30;99.90;;;;;;5074571;28;20040;-72
2022/09/24 13:16:04;;;;;;;9.40;2.00;;;16.20;99.90;;;;;;5073959;28;20573;-73
2022/09/24 13:18:33;;;;;;;9.77;2.30;;;16.40;99.90;;;;;;5073326;28;20035;-72
2022/09/24 13:21:03;;;;;;;7.28;2.00;;;16.20;99.90;;;;;;5072030;28;20036;-72
2022/09/24 13:23:43;;;;;;;10.98;1.85;;;16.50;99.90;;;;;;5071699;28;20059;-72